Time;durP1;ratioP1;P1;durP2;ratioP2;P2;SDS_P1;SDS_P2;PMS_P1;PMS_P2;Temp;Humidity;BMP_temperature;BMP_pressure;BME280_temperature;BME280_humidity;BME280_pressure;Samples;Min_cycle;Max_cycle;Signal;HPM_P1;HPM_P2
2021/04/20 00:00:11;;;;;;;18.55;12.93;;;;;;;8.46;76.33;98721.63;1756332;82;21122;-64
2021/04/20 00:02:39;;;;;;;20.68;13.72;;;;;;;8.36;76.42;98709.44;1756162;82;21336;-64
2021/04/20 00:05:12;;;;;;;19.80;14.55;;;;;;;8.32;76.64;98711.93;1756291;81;21154;-64
2021/04/20 00:07:40;;;;;;;20.68;14.03;;;;;;;8.24;76.81;98708.84;1756319;82;21127;-64
2021/04/20 00:10:15;;;;;;;19.92;12.93;;;;;;;8.19;77.06;98710.87;1756574;82;21643;-63
2021/04/20 00:12:44;;;;;;;18.40;12.15;;;;;;;8.14;77.34;98704.79;1756431;82;21287;-64
2021/04/20 00:15:20;;;;;;;20.92;13.60;;;;;;;8.10;77.73;98705.17;1756221;81;21183;-63
2021/04/20 00:17:51;;;;;;;20.97;14.78;;;;;;;8.10;78.04;98703.03;1755966;81;21162;-64
2021/04/20 00:20:20;;;;;;;24.65;15.53;;;;;;;8.08;78.26;98700.42;1756423;82;21287;-64
2021/04/20 00:22:49;;;;;;;22.75;14.87;;;;;;;8.07;78.53;98699.13;1756329;81;21155;-64
2021/04/20 00:25:17;;;;;;;21.93;14.58;;;;;;;8.01;78.62;98698.58;1756231;82;21228;-63
2021/04/20 00:27:46;;;;;;;21.10;13.45;;;;;;;7.95;78.81;98701.92;1756250;82;21173;-64
2021/04/20 00:30:16;;;;;;;17.27;12.33;;;;;;;7.90;78.97;98693.27;1756204;81;21311;-63
2021/04/20 00:32:43;;;;;;;17.98;11.90;;;;;;;7.85;79.15;98689.75;1756216;82;21284;-64
2021/04/20 00:35:12;;;;;;;19.80;10.72;;;;;;;7.79;79.34;98688.38;1766342;81;21645;-64
2021/04/20 00:37:42;;;;;;;14.07;10.45;;;;;;;7.75;79.49;98685.30;1767501;81;21563;-63
2021/04/20 00:40:13;;;;;;;15.48;10.98;;;;;;;7.72;79.66;98677.55;1767267;81;21284;-63
2021/04/20 00:42:57;;;;;;;17.30;12.25;;;;;;;7.73;79.74;98672.84;1767406;81;21174;-64
2021/04/20 00:45:30;;;;;;;15.95;11.83;;;;;;;7.73;79.80;98671.55;1767595;81;21709;-63
2021/04/20 00:47:58;;;;;;;18.98;12.58;;;;;;;7.73;79.81;98670.27;1767433;81;21154;-62
2021/04/20 00:50:31;;;;;;;18.98;11.85;;;;;;;7.71;79.95;98666.41;1767198;81;21142;-63
2021/04/20 00:52:59;;;;;;;16.30;11.85;;;;;;;7.70;80.03;98665.09;1767420;81;21295;-64
2021/04/20 00:55:28;;;;;;;17.92;11.40;;;;;;;7.65;80.12;98657.30;1767447;81;21173;-63
2021/04/20 00:57:56;;;;;;;14.35;9.95;;;;;;;7.63;80.24;98657.68;1767288;81;21182;-62
2021/04/20 01:00:28;;;;;;;15.03;10.03;;;;;;;7.60;80.39;98661.48;1767191;81;21157;-63
2021/04/20 01:02:56;;;;;;;;;;;;;;;7.58;80.58;98655.45;1769833;81;21130;-64
2021/04/20 01:05:34;;;;;;;15.10;10.35;;;;;;;7.59;80.79;98651.64;1767528;81;20436;-63
2021/04/20 01:08:09;;;;;;;14.40;9.75;;;;;;;7.60;80.78;98640.94;1767372;81;21231;-63
2021/04/20 01:10:53;;;;;;;14.70;9.73;;;;;;;7.61;80.84;98640.98;1767204;81;21102;-64
2021/04/20 01:13:26;;;;;;;;;;;;;;;7.59;80.90;98635.38;1769905;81;21275;-62
2021/04/20 01:15:54;;;;;;;14.05;9.50;;;;;;;7.58;81.00;98638.76;1767422;81;20139;-63
2021/04/20 01:18:32;;;;;;;13.45;9.50;;;;;;;7.56;81.16;98633.61;1767544;81;21150;-63
2021/04/20 01:21:05;;;;;;;13.22;9.83;;;;;;;7.58;81.21;98628.48;1767332;81;21141;-64
2021/04/20 01:24:10;;;;;;;13.00;8.95;;;;;;;7.64;81.33;98628.61;1767364;81;21142;-64
2021/04/20 01:26:45;;;;;;;13.45;9.58;;;;;;;7.72;81.29;98630.03;1767610;80;21287;-64
2021/04/20 01:29:14;;;;;;;14.68;9.80;;;;;;;7.81;81.18;98622.45;1767380;81;21158;-61
2021/04/20 01:31:44;;;;;;;12.20;7.97;;;;;;;7.88;80.99;98618.29;1767223;81;21142;-62
2021/04/20 01:34:13;;;;;;;12.78;9.73;;;;;;;7.91;80.83;98615.37;1759972;81;21592;-62
2021/04/20 01:36:42;;;;;;;14.87;10.93;;;;;;;7.95;80.67;98615.84;1748437;82;21285;-63
2021/04/20 01:39:13;;;;;;;15.68;10.70;;;;;;;7.96;80.61;98612.45;1748489;82;21716;-63
2021/04/20 01:41:42;;;;;;;13.97;10.47;;;;;;;7.96;80.71;98607.31;1748601;82;21549;-63
2021/04/20 01:44:10;;;;;;;17.50;11.20;;;;;;;7.96;80.74;98603.85;1748386;82;21313;-63
2021/04/20 01:46:38;;;;;;;16.50;10.90;;;;;;;7.94;80.88;98594.86;1748400;82;21154;-63
2021/04/20 01:49:06;;;;;;;14.85;10.32;;;;;;;7.94;81.01;98594.86;1748188;81;21320;-63
2021/04/20 01:51:35;;;;;;;12.93;9.05;;;;;;;7.95;81.03;98595.71;1748256;82;21170;-65
2021/04/20 01:54:03;;;;;;;15.10;10.90;;;;;;;7.95;81.06;98596.57;1748434;82;21597;-65
2021/04/20 01:56:33;;;;;;;15.30;10.98;;;;;;;7.93;81.05;98592.25;1748390;82;21159;-66
2021/04/20 01:59:02;;;;;;;14.28;10.45;;;;;;;7.90;81.05;98589.64;1748404;82;21292;-64
2021/04/20 02:01:30;;;;;;;12.37;9.73;;;;;;;7.87;81.04;98587.89;1748552;82;21162;-65
2021/04/20 02:03:58;;;;;;;14.75;9.80;;;;;;;7.83;81.15;98583.53;1721619;82;21166;-64
2021/04/20 02:06:26;;;;;;;14.80;10.10;;;;;;;7.79;81.21;98580.06;1748532;82;21150;-64
2021/04/20 02:08:56;;;;;;;13.78;9.08;;;;;;;7.78;81.32;98578.31;1748312;82;21178;-64
2021/04/20 02:11:24;;;;;;;13.95;9.73;;;;;;;7.80;81.41;98580.92;1748469;81;21165;-63
2021/04/20 02:13:53;;;;;;;13.28;9.88;;;;;;;7.82;81.44;98580.53;1748340;82;21170;-65
2021/04/20 02:16:21;;;;;;;15.50;10.50;;;;;;;7.87;81.53;98578.90;1748418;82;21305;-62
2021/04/20 02:18:53;;;;;;;14.50;10.55;;;;;;;7.88;81.65;98579.33;1748378;82;21293;-63
2021/04/20 02:21:22;;;;;;;13.70;10.80;;;;;;;7.90;81.68;98580.65;1748315;82;21166;-63
2021/04/20 02:23:51;;;;;;;16.00;11.35;;;;;;;7.87;81.74;98577.61;1748604;82;21123;-63
2021/04/20 02:26:32;;;;;;;16.77;10.98;;;;;;;7.88;81.80;98578.05;1748340;81;21186;-65
2021/04/20 02:29:02;;;;;;;15.60;10.82;;;;;;;7.87;81.82;98577.61;1748439;82;21162;-67
2021/04/20 02:31:42;;;;;;;14.75;10.93;;;;;;;7.86;81.91;98573.33;1748398;82;21163;-61
2021/04/20 02:34:12;;;;;;;15.98;9.85;;;;;;;7.87;81.96;98571.62;1748372;81;21185;-62
2021/04/20 02:36:43;;;;;;;15.10;10.65;;;;;;;7.85;81.97;98572.86;1748525;82;21162;-61
2021/04/20 02:39:13;;;;;;;16.87;10.93;;;;;;;7.85;81.92;98574.15;1748374;82;21292;-63
2021/04/20 02:41:48;;;;;;;14.23;9.90;;;;;;;7.79;81.92;98572.78;1748268;82;21139;-62
2021/04/20 02:44:18;;;;;;;17.00;11.40;;;;;;;7.74;81.96;98571.42;1737392;82;21158;-63
2021/04/20 02:46:46;;;;;;;16.82;11.65;;;;;;;7.70;82.09;98574.77;1748495;82;21162;-63
2021/04/20 02:49:16;;;;;;;15.85;10.85;;;;;;;7.64;82.27;98572.54;1748285;82;21601;-62
2021/04/20 02:51:44;;;;;;;16.27;11.28;;;;;;;7.61;82.58;98570.78;1748466;82;21168;-65
2021/04/20 02:54:14;;;;;;;15.48;11.08;;;;;;;7.58;82.67;98565.58;1748278;82;21151;-64
2021/04/20 02:56:42;;;;;;;16.40;12.25;;;;;;;7.56;82.86;98565.57;1748263;82;21699;-64
2021/04/20 02:59:11;;;;;;;16.70;11.78;;;;;;;7.56;82.99;98559.14;1748283;82;21147;-63
2021/04/20 03:01:42;;;;;;;17.15;11.50;;;;;;;7.56;82.97;98568.56;1748473;82;21158;-63
2021/04/20 03:04:17;;;;;;;16.90;11.57;;;;;;;7.56;83.02;98559.14;1748722;82;21277;-63
2021/04/20 03:06:46;;;;;;;17.75;12.20;;;;;;;7.54;83.08;98562.11;1748370;82;21564;-61
2021/04/20 03:09:14;;;;;;;17.82;12.63;;;;;;;7.53;83.18;98566.80;1748551;82;21178;-62
2021/04/20 03:11:54;;;;;;;17.77;11.53;;;;;;;7.52;83.20;98565.06;1748578;82;21178;-64
2021/04/20 03:14:23;;;;;;;15.75;11.57;;;;;;;7.53;83.28;98566.80;1748472;82;21288;-64
2021/04/20 03:16:51;;;;;;;16.62;11.90;;;;;;;7.55;83.32;98565.10;1748343;81;21553;-63
2021/04/20 03:19:20;;;;;;;16.90;12.53;;;;;;;7.58;83.34;98563.89;1748435;82;21170;-61
2021/04/20 03:21:50;;;;;;;17.62;12.30;;;;;;;7.63;83.28;98562.66;1748260;82;21170;-65
2021/04/20 03:24:35;;;;;;;17.30;11.78;;;;;;;7.65;83.23;98554.56;1737825;82;21182;-64
2021/04/20 03:27:06;;;;;;;17.10;12.45;;;;;;;7.69;83.15;98560.63;1743359;81;21154;-65
2021/04/20 03:29:40;;;;;;;16.93;11.73;;;;;;;7.70;83.10;98558.50;1748276;82;21154;-62
2021/04/20 03:32:08;;;;;;;16.80;11.60;;;;;;;7.73;83.02;98562.39;1748503;81;21162;-64
2021/04/20 03:34:55;;;;;;;16.32;11.55;;;;;;;7.74;83.02;98566.71;1748345;81;21178;-64
2021/04/20 03:37:53;;;;;;;18.73;11.60;;;;;;;7.76;83.03;98563.72;1748528;82;21186;-64
2021/04/20 03:40:23;;;;;;;15.20;11.75;;;;;;;7.79;83.00;98563.79;1748228;82;21143;-63
2021/04/20 03:42:57;;;;;;;18.48;12.33;;;;;;;7.83;82.92;98562.55;1748344;81;21171;-64
2021/04/20 03:45:39;;;;;;;17.82;13.03;;;;;;;7.89;82.78;98563.09;1748511;82;21711;-64
2021/04/20 03:48:27;;;;;;;17.42;12.53;;;;;;;7.92;82.70;98557.13;1701296;84;21169;-63
2021/04/20 03:51:03;;;;;;;18.40;12.63;;;;;;;7.92;82.58;98561.84;1712523;83;21177;-64
2021/04/20 03:53:35;;;;;;;16.80;11.08;;;;;;;7.93;82.59;98562.27;1712537;84;21154;-64
2021/04/20 03:56:08;;;;;;;20.45;12.80;;;;;;;7.93;82.63;98562.27;1712689;83;21671;-63
2021/04/20 03:58:37;;;;;;;18.42;11.90;;;;;;;7.97;82.68;98560.20;1704349;84;21239;-66
2021/04/20 04:01:11;;;;;;;17.12;12.82;;;;;;;8.04;82.62;98558.18;1748446;82;21581;-64
2021/04/20 04:03:40;;;;;;;17.12;12.70;;;;;;;8.13;82.48;98550.15;1748225;82;21159;-66
2021/04/20 04:06:12;;;;;;;17.80;12.43;;;;;;;8.19;82.37;98557.53;1737456;82;21277;-64
2021/04/20 04:08:42;;;;;;;17.25;12.85;;;;;;;8.24;82.19;98554.61;1748318;82;21178;-66
2021/04/20 04:11:12;;;;;;;20.00;12.28;;;;;;;8.29;82.08;98550.78;1748230;82;21154;-63
2021/04/20 04:13:43;;;;;;;19.00;12.88;;;;;;;8.35;81.95;98550.89;1748246;81;21317;-65
2021/04/20 04:16:14;;;;;;;17.48;12.93;;;;;;;8.41;81.85;98544.55;1748349;82;21216;-65
2021/04/20 04:18:47;;;;;;;18.48;12.40;;;;;;;8.50;81.66;98544.22;1748451;82;21174;-64
2021/04/20 04:21:19;;;;;;;17.75;11.60;;;;;;;8.59;81.52;98545.63;1748378;82;21297;-64
2021/04/20 04:23:50;;;;;;;20.15;12.75;;;;;;;8.68;81.31;98539.33;1748315;82;21158;-64
2021/04/20 04:26:25;;;;;;;14.15;11.25;;;;;;;8.77;81.01;98535.55;1748446;82;21170;-64
2021/04/20 04:28:59;;;;;;;16.25;11.97;;;;;;;8.81;80.48;98533.47;1748366;82;21174;-64
2021/04/20 04:31:30;;;;;;;19.60;12.78;;;;;;;8.84;80.27;98535.20;1748191;82;21154;-64
2021/04/20 04:33:58;;;;;;;21.65;12.90;;;;;;;8.85;80.19;98533.95;1748388;82;21135;-63
2021/04/20 04:36:27;;;;;;;17.52;12.37;;;;;;;8.92;80.10;98536.14;1766298;81;21173;-64
2021/04/20 04:38:55;;;;;;;16.52;12.35;;;;;;;9.02;79.79;98535.39;1767158;81;21173;-65
2021/04/20 04:41:23;;;;;;;17.80;13.35;;;;;;;9.17;79.71;98530.83;1769462;80;21169;-63
2021/04/20 04:43:51;;;;;;;19.55;13.18;;;;;;;9.37;79.00;98526.30;1767257;81;21154;-65
2021/04/20 04:46:21;;;;;;;18.42;13.70;;;;;;;9.49;78.54;98528.95;1767448;81;21154;-64
2021/04/20 04:48:51;;;;;;;17.32;12.55;;;;;;;9.66;78.24;98524.80;1767491;81;21185;-63
2021/04/20 04:51:20;;;;;;;18.02;12.75;;;;;;;9.86;77.44;98525.38;1767236;81;21280;-65
2021/04/20 04:53:50;;;;;;;20.37;13.70;;;;;;;9.85;76.79;98519.80;1767175;81;21741;-64
2021/04/20 04:56:19;;;;;;;17.70;13.35;;;;;;;9.76;76.65;98525.73;1774251;80;21195;-64
2021/04/20 04:58:48;;;;;;;18.90;13.28;;;;;;;9.72;76.80;98521.00;1775484;80;21146;-64
2021/04/20 05:01:18;;;;;;;17.62;12.63;;;;;;;9.68;76.59;98524.39;1776770;80;21139;-65
2021/04/20 05:03:45;;;;;;;16.40;12.30;;;;;;;9.58;76.64;98523.02;1779060;80;21182;-64
2021/04/20 05:06:16;;;;;;;17.70;12.53;;;;;;;9.44;77.01;98527.65;1776509;80;21210;-64
2021/04/20 05:08:44;;;;;;;17.27;12.80;;;;;;;9.30;77.50;98521.07;1777915;80;21582;-66
2021/04/20 05:11:14;;;;;;;14.78;11.95;;;;;;;9.23;77.92;98523.58;1774510;80;21173;-65
2021/04/20 05:13:43;;;;;;;17.75;12.85;;;;;;;9.17;78.21;98524.39;1781126;80;21171;-65
2021/04/20 05:16:11;;;;;;;17.85;12.37;;;;;;;9.07;78.56;98522.58;1783235;80;21155;-65
2021/04/20 05:18:40;;;;;;;16.30;12.35;;;;;;;9.03;78.95;98529.81;1783185;80;21318;-66
2021/04/20 05:21:09;;;;;;;16.55;11.83;;;;;;;9.07;79.13;98527.30;1783511;80;21297;-65
2021/04/20 05:23:37;;;;;;;17.60;12.20;;;;;;;9.29;79.20;98523.22;1783551;80;21179;-65
2021/04/20 05:26:05;;;;;;;19.77;11.75;;;;;;;9.51;78.47;98524.25;1783511;80;21194;-65
2021/04/20 05:28:33;;;;;;;17.90;12.63;;;;;;;9.64;77.96;98520.08;1783696;80;21305;-63
2021/04/20 05:31:01;;;;;;;17.70;12.58;;;;;;;9.72;77.58;98522.28;1783741;80;21151;-65
2021/04/20 05:33:29;;;;;;;17.05;12.55;;;;;;;9.82;77.11;98526.19;1783812;80;21316;-66
2021/04/20 05:36:10;;;;;;;17.32;12.73;;;;;;;9.90;76.82;98520.69;1775129;80;21159;-65
2021/04/20 05:38:38;;;;;;;17.70;12.78;;;;;;;10.51;76.54;98521.04;1764439;80;21162;-66
2021/04/20 05:41:07;;;;;;;16.32;11.53;;;;;;;11.32;73.83;98520.34;1746196;81;21110;-64
2021/04/20 05:43:37;;;;;;;17.25;12.50;;;;;;;11.82;72.04;98523.80;1747117;81;21173;-65
2021/04/20 05:46:07;;;;;;;17.98;11.95;;;;;;;12.60;70.28;98523.63;1743398;82;21172;-67
2021/04/20 05:48:37;;;;;;;16.67;10.80;;;;;;;13.09;68.06;98523.36;1735777;80;21095;-65
2021/04/20 05:51:11;;;;;;;16.10;10.58;;;;;;;13.45;65.62;98522.70;1748675;80;21360;-65
2021/04/20 05:53:40;;;;;;;14.55;10.45;;;;;;;13.47;64.69;98523.56;1742872;80;21286;-64
2021/04/20 05:56:07;;;;;;;15.63;11.22;;;;;;;13.27;63.94;98524.15;1745257;81;21558;-65
2021/04/20 05:58:36;;;;;;;15.40;11.00;;;;;;;13.01;64.11;98519.97;1731483;80;21128;-65
2021/04/20 06:01:05;;;;;;;13.98;11.25;;;;;;;12.86;64.19;98520.91;1718823;83;21342;-65
2021/04/20 06:03:39;;;;;;;16.23;10.78;;;;;;;12.67;64.54;98522.74;1725139;80;21229;-66
2021/04/20 06:06:09;;;;;;;13.30;10.35;;;;;;;12.48;64.92;98519.35;1746470;81;21264;-66
2021/04/20 06:08:38;;;;;;;13.48;11.30;;;;;;;12.30;65.37;98512.95;1735976;81;21150;-65
2021/04/20 06:11:09;;;;;;;14.33;11.18;;;;;;;12.18;65.89;98509.96;1749408;81;21157;-67
2021/04/20 06:13:37;;;;;;;17.00;11.35;;;;;;;12.10;66.05;98511.71;1768852;80;21154;-64
2021/04/20 06:16:06;;;;;;;15.72;11.08;;;;;;;11.95;66.44;98517.34;1749538;81;21142;-63
2021/04/20 06:18:38;;;;;;;17.07;10.30;;;;;;;11.80;66.91;98516.47;1746309;80;21963;-61
2021/04/20 06:21:08;;;;;;;13.75;10.70;;;;;;;11.79;67.11;98514.33;1759186;80;21229;-63
2021/04/20 06:23:37;;;;;;;16.37;10.68;;;;;;;11.95;66.90;98510.87;1769986;80;21690;-62
2021/04/20 06:26:06;;;;;;;14.10;10.00;;;;;;;11.89;66.75;98516.06;1769387;80;21190;-63
2021/04/20 06:28:40;;;;;;;16.30;10.08;;;;;;;11.85;67.06;98507.84;1769151;80;22404;-63
2021/04/20 06:31:07;;;;;;;14.50;10.63;;;;;;;11.88;67.06;98512.17;1769325;80;21623;-63
2021/04/20 06:33:37;;;;;;;14.70;9.68;;;;;;;12.40;66.20;98505.59;1769797;81;21355;-63
2021/04/20 06:36:09;;;;;;;11.57;9.45;;;;;;;12.52;65.24;98502.95;1774274;80;21162;-61
2021/04/20 06:38:39;;;;;;;13.98;10.18;;;;;;;12.38;65.45;98499.55;1758841;81;21218;-64
2021/04/20 06:41:10;;;;;;;14.87;9.95;;;;;;;12.37;65.73;98505.16;1778162;80;21576;-64
2021/04/20 06:43:57;;;;;;;15.48;9.75;;;;;;;12.85;64.77;98509.25;1754899;81;21298;-62
2021/04/20 06:46:32;;;;;;;15.28;10.53;;;;;;;13.18;63.88;98501.29;1778057;80;21161;-64
2021/04/20 06:49:24;;;;;;;13.03;9.40;;;;;;;13.42;63.28;98500.70;1777856;81;21274;-63
2021/04/20 06:52:03;;;;;;;13.22;9.73;;;;;;;13.56;61.98;98502.77;1777952;81;21694;-64
2021/04/20 06:54:40;;;;;;;14.23;9.25;;;;;;;13.89;61.47;98503.30;1778179;81;21154;-63
2021/04/20 06:57:18;;;;;;;10.55;8.80;;;;;;;14.24;60.45;98500.78;1776487;80;21291;-65
2021/04/20 07:00:09;;;;;;;13.20;8.75;;;;;;;14.38;59.13;98500.20;1777983;80;21169;-64
2021/04/20 07:03:07;;;;;;;13.03;8.78;;;;;;;14.90;57.86;98499.54;1767282;81;21295;-62
2021/04/20 07:05:46;;;;;;;16.82;8.63;;;;;;;15.07;57.10;98495.86;1778120;81;21150;-64
2021/04/20 07:08:44;;;;;;;19.37;8.93;;;;;;;15.27;56.47;98495.12;1721461;81;21304;-64
2021/04/20 07:11:14;;;;;;;17.40;8.30;;;;;;;15.19;56.51;98491.34;1752233;80;21149;-64
2021/04/20 07:13:49;;;;;;;12.03;7.58;;;;;;;15.48;56.37;98495.20;1749651;81;21174;-65
2021/04/20 07:16:32;;;;;;;9.90;7.30;;;;;;;15.55;55.22;98494.67;1752896;80;21816;-63
2021/04/20 07:19:35;;;;;;;9.53;7.10;;;;;;;14.94;55.63;98494.73;1794211;78;21227;-64
2021/04/20 07:22:37;;;;;;;10.48;6.90;;;;;;;14.32;57.37;98496.36;1785614;80;21297;-63
2021/04/20 07:25:13;;;;;;;12.90;7.28;;;;;;;13.76;58.77;98490.89;1784841;80;21261;-63
2021/04/20 07:28:14;;;;;;;10.32;7.80;;;;;;;13.27;60.59;98488.72;1785393;80;21277;-61
2021/04/20 07:31:09;;;;;;;9.75;7.12;;;;;;;13.04;61.61;98484.52;1785389;80;21112;-66
2021/04/20 07:33:59;;;;;;;9.95;7.60;;;;;;;12.98;62.16;98482.43;1785466;80;21159;-63
2021/04/20 07:37:12;;;;;;;10.05;6.47;;;;;;;13.38;62.05;98486.92;1774078;80;21275;-63
2021/04/20 07:40:22;;;;;;;10.25;6.60;;;;;;;13.89;59.69;98481.25;1772299;81;21141;-64
2021/04/20 07:43:13;;;;;;;10.95;6.95;;;;;;;14.20;59.03;98488.29;1776894;79;21093;-64
2021/04/20 07:46:25;;;;;;;8.73;6.62;;;;;;;14.72;57.67;98481.17;1789099;78;21314;-64
2021/04/20 07:49:01;;;;;;;8.58;5.55;;;;;;;15.14;55.93;98488.39;1805448;78;21216;-63
2021/04/20 07:51:54;;;;;;;9.33;6.08;;;;;;;15.75;54.89;98479.62;1805369;78;21202;-63
2021/04/20 07:54:59;;;;;;;7.12;5.37;;;;;;;16.54;51.99;98480.27;1774391;80;21118;-62
2021/04/20 07:57:33;;;;;;;7.53;4.92;;;;;;;17.18;50.16;98475.41;1780632;80;21133;-63
2021/04/20 08:00:21;;;;;;;7.12;5.08;;;;;;;17.28;48.94;98472.98;1718954;81;21776;-64
2021/04/20 08:03:16;;;;;;;7.17;5.78;;;;;;;17.53;48.28;98469.34;1758257;81;21267;-64
2021/04/20 08:05:51;;;;;;;9.93;4.65;;;;;;;17.09;48.96;98463.42;1765889;81;21628;-64
2021/04/20 08:08:30;;;;;;;6.10;4.15;;;;;;;17.09;48.96;98463.42;1750664;81;21178;-62
2021/04/20 08:11:13;;;;;;;5.95;4.10;;;;;;;16.45;48.96;98457.01;1743452;82;21160;-64
2021/04/20 08:14:05;;;;;;;5.05;3.60;;;;;;;15.59;50.09;98463.81;1737249;82;21704;-65
2021/04/20 08:17:20;;;;;;;8.30;3.90;;;;;;;14.93;51.27;98457.06;1747172;82;21588;-63
2021/04/20 08:20:09;;;;;;;13.15;3.70;;;;;;;15.01;52.18;98459.55;1730237;82;21547;-64
2021/04/20 08:22:38;;;;;;;7.17;3.90;;;;;;;15.67;50.83;98458.03;1767962;81;21361;-64
2021/04/20 08:25:15;;;;;;;6.03;3.92;;;;;;;15.35;50.29;98457.30;1766807;81;21216;-63
2021/04/20 08:27:57;;;;;;;6.83;4.10;;;;;;;14.87;51.98;98455.88;1756347;81;21596;-64
2021/04/20 08:30:51;;;;;;;7.50;4.10;;;;;;;14.46;53.36;98446.44;1737054;82;21180;-64
2021/04/20 08:33:25;;;;;;;6.08;4.53;;;;;;;13.83;54.80;98448.45;1737119;82;21172;-64
2021/04/20 08:35:57;;;;;;;7.95;4.40;;;;;;;13.32;56.24;98442.90;1736120;82;21303;-62
2021/04/20 08:38:48;;;;;;;5.47;4.17;;;;;;;12.90;57.92;98446.22;1753542;82;21182;-64
2021/04/20 08:41:45;;;;;;;7.85;4.40;;;;;;;12.67;58.89;98448.95;1794047;79;21125;-63
2021/04/20 08:44:29;;;;;;;8.18;4.55;;;;;;;12.40;60.06;98452.98;1787217;79;21263;-63
2021/04/20 08:47:25;;;;;;;9.05;5.20;;;;;;;12.26;60.91;98450.02;1772577;79;21183;-64
2021/04/20 08:49:58;;;;;;;8.98;4.70;;;;;;;12.16;61.49;98442.73;1778656;80;21267;-64
2021/04/20 08:53:13;;;;;;;9.90;5.72;;;;;;;12.23;61.64;98446.57;1765011;79;21303;-64
2021/04/20 08:55:53;;;;;;;8.53;5.35;;;;;;;12.29;62.15;98442.24;1783072;79;21659;-63
2021/04/20 08:58:32;;;;;;;8.88;5.95;;;;;;;12.30;62.17;98442.66;1777271;79;21121;-64
2021/04/20 09:01:40;;;;;;;10.00;5.53;;;;;;;12.37;62.29;98434.00;1761792;81;21113;-64
2021/04/20 09:04:34;;;;;;;8.18;5.45;;;;;;;12.50;62.33;98432.22;1762339;81;21145;-62
2021/04/20 09:07:15;;;;;;;7.50;5.10;;;;;;;12.58;61.96;98438.20;1762387;80;21263;-63
2021/04/20 09:09:46;;;;;;;8.00;5.62;;;;;;;12.54;61.43;98431.34;1728808;80;21360;-64
2021/04/20 09:12:15;;;;;;;;;;;;;;;12.43;61.40;98434.84;1777222;80;21324;-63
2021/04/20 09:14:48;;;;;;;6.75;4.80;;;;;;;12.41;61.19;98432.25;1768278;80;20412;-64
2021/04/20 09:17:20;;;;;;;8.53;5.92;;;;;;;12.63;61.23;98429.56;1766827;81;21167;-63
2021/04/20 09:20:05;;;;;;;9.95;6.10;;;;;;;13.10;60.35;98427.06;1774519;80;21306;-63
2021/04/20 09:22:43;;;;;;;7.78;5.25;;;;;;;13.36;59.49;98423.02;1792018;80;21141;-62
2021/04/20 09:25:25;;;;;;;7.47;5.25;;;;;;;13.64;58.83;98419.28;1765134;80;21172;-63
2021/04/20 09:28:26;;;;;;;10.35;5.55;;;;;;;14.04;57.82;98424.05;1799906;79;21159;-62
2021/04/20 09:30:59;;;;;;;10.72;5.28;;;;;;;14.26;56.95;98415.98;1799744;79;21081;-64
2021/04/20 09:33:35;;;;;;;7.75;4.65;;;;;;;14.33;56.56;98420.22;1799798;79;21034;-62
2021/04/20 09:36:05;;;;;;;7.12;4.75;;;;;;;14.25;55.16;98414.28;1800121;79;21030;-62
2021/04/20 09:38:33;;;;;;;6.47;4.83;;;;;;;13.93;55.54;98409.02;1805349;78;21163;-66
2021/04/20 09:41:01;;;;;;;7.33;5.33;;;;;;;13.55;57.05;98408.98;1805513;79;21176;-68
2021/04/20 09:43:44;;;;;;;8.05;5.95;;;;;;;13.32;57.61;98407.06;1805439;78;21058;-67
2021/04/20 09:46:36;;;;;;;10.38;5.90;;;;;;;13.27;58.11;98409.69;1789337;78;21200;-67
2021/04/20 09:49:29;;;;;;;6.60;5.17;;;;;;;13.27;57.99;98414.02;1802421;78;21175;-66
2021/04/20 09:52:05;;;;;;;7.15;4.92;;;;;;;13.26;58.24;98404.06;1788854;79;21176;-67
2021/04/20 09:55:01;;;;;;;10.43;5.90;;;;;;;13.28;58.38;98398.47;1805333;78;21038;-67
2021/04/20 09:57:35;;;;;;;8.80;5.60;;;;;;;13.35;57.95;98400.55;1805473;78;21049;-67
2021/04/20 10:00:09;;;;;;;11.55;5.62;;;;;;;13.46;57.42;98397.44;1805558;78;21468;-66
2021/04/20 10:03:11;;;;;;;10.63;5.72;;;;;;;13.54;56.74;98389.14;1801594;78;21055;-67
2021/04/20 10:06:17;;;;;;;7.80;5.55;;;;;;;13.65;56.78;98379.50;1770197;79;21433;-66
2021/04/20 10:09:15;;;;;;;8.60;5.75;;;;;;;13.80;56.44;98377.17;1805554;78;21046;-65
2021/04/20 10:11:52;;;;;;;8.23;5.58;;;;;;;13.84;55.82;98368.91;1805332;79;21064;-66
2021/04/20 10:14:42;;;;;;;7.45;5.67;;;;;;;13.81;55.48;98372.84;1805735;78;21041;-66
2021/04/20 10:17:17;;;;;;;7.33;4.95;;;;;;;13.81;55.63;98378.03;1805503;78;21010;-66
2021/04/20 10:20:09;;;;;;;7.12;5.08;;;;;;;13.68;55.51;98374.72;1774018;79;21032;-68
2021/04/20 10:22:59;;;;;;;9.78;5.95;;;;;;;13.39;55.93;98375.03;1776265;79;21041;-67
2021/04/20 10:25:52;;;;;;;10.10;6.17;;;;;;;13.39;55.93;98375.03;1777871;79;21167;-67
2021/04/20 10:28:44;;;;;;;7.37;5.28;;;;;;;13.32;56.93;98363.00;1772614;81;21174;-66
2021/04/20 10:31:25;;;;;;;10.23;5.58;;;;;;;13.38;56.37;98373.30;1738761;80;21065;-66
2021/04/20 10:33:54;;;;;;;9.13;5.75;;;;;;;13.44;55.88;98374.11;1750111;81;21261;-67
2021/04/20 10:36:25;;;;;;;7.08;5.33;;;;;;;13.30;55.49;98374.67;1754891;82;21074;-66
2021/04/20 10:38:56;;;;;;;7.10;5.15;;;;;;;13.18;56.00;98373.03;1740118;82;21082;-67
2021/04/20 10:41:33;;;;;;;8.70;6.37;;;;;;;13.04;56.25;98376.17;1740371;82;21517;-66
2021/04/20 10:44:06;;;;;;;9.30;5.53;;;;;;;12.94;56.80;98375.38;1739929;82;21679;-66
2021/04/20 10:46:34;;;;;;;10.45;6.00;;;;;;;12.96;56.64;98367.61;1737885;82;21067;-67
2021/04/20 10:49:03;;;;;;;8.68;5.35;;;;;;;12.98;56.56;98365.88;1740082;82;21055;-65
2021/04/20 10:51:40;;;;;;;9.40;5.80;;;;;;;13.07;56.63;98370.11;1740330;82;21221;-66
2021/04/20 10:54:10;;;;;;;9.20;5.67;;;;;;;13.29;55.91;98366.48;1740086;82;21083;-67
2021/04/20 10:56:40;;;;;;;11.57;5.35;;;;;;;13.52;55.75;98368.84;1740259;82;21581;-78
2021/04/20 10:59:09;;;;;;;9.60;5.42;;;;;;;13.80;55.01;98365.95;1719971;82;21059;-75
2021/04/20 11:01:41;;;;;;;12.93;5.20;;;;;;;13.85;53.94;98367.61;1740915;82;21524;-77
2021/04/20 11:04:10;;;;;;;6.58;4.90;;;;;;;13.92;53.62;98361.92;1743126;81;21711;-75
2021/04/20 11:07:19;;;;;;;5.87;4.25;;;;;;;13.87;52.81;98358.08;1738933;82;21103;-74
2021/04/20 11:09:58;;;;;;;6.58;4.42;;;;;;;13.70;53.33;98362.59;1723752;82;21044;-76
2021/04/20 11:12:27;;;;;;;8.10;4.90;;;;;;;13.56;53.98;98363.18;1717840;82;21027;-77
2021/04/20 11:14:56;;;;;;;7.25;5.35;;;;;;;13.34;54.52;98359.52;1733548;82;21501;-75
2021/04/20 11:17:56;;;;;;;8.40;5.17;;;;;;;13.03;54.51;98362.37;1714686;84;21496;-77
2021/04/20 11:20:42;;;;;;;9.43;5.30;;;;;;;12.78;55.62;98354.37;1740092;82;21426;-76
2021/04/20 11:23:20;;;;;;;7.30;5.58;;;;;;;12.58;56.58;98351.93;1740260;82;21055;-70
2021/04/20 11:25:56;;;;;;;8.63;5.83;;;;;;;12.44;57.16;98358.91;1740126;82;21024;-75
2021/04/20 11:28:44;;;;;;;8.05;5.25;;;;;;;12.36;57.92;98354.67;1740350;82;21458;-74
2021/04/20 11:31:31;;;;;;;10.55;5.80;;;;;;;12.27;58.02;98344.37;1740124;82;21048;-75
2021/04/20 11:34:19;;;;;;;7.58;5.15;;;;;;;12.27;58.17;98337.89;1739560;82;21079;-77
2021/04/20 11:36:57;;;;;;;7.45;5.00;;;;;;;12.32;58.14;98345.20;1740116;82;21189;-73
2021/04/20 11:39:39;;;;;;;10.13;5.47;;;;;;;12.47;58.01;98345.98;1740019;82;21090;-74
2021/04/20 11:42:17;;;;;;;9.48;5.97;;;;;;;12.47;58.16;98341.66;1740186;82;21055;-76
2021/04/20 11:44:50;;;;;;;7.80;5.50;;;;;;;12.42;58.98;98346.45;1740075;82;21035;-76
2021/04/20 11:47:19;;;;;;;8.88;5.72;;;;;;;12.38;59.35;98347.73;1725368;82;21089;-74
2021/04/20 11:49:51;;;;;;;9.20;5.80;;;;;;;12.37;59.01;98346.47;1755581;80;21034;-74
2021/04/20 11:52:28;;;;;;;;;;;;;;;12.38;59.40;98336.09;1754113;80;21528;-62
2021/04/20 11:55:10;;;;;;;8.15;5.62;;;;;;;12.48;58.89;98329.57;1715261;81;20148;-72
2021/04/20 11:57:41;;;;;;;8.43;5.83;;;;;;;12.52;59.40;98335.16;1741691;82;21153;-74
2021/04/20 12:00:11;;;;;;;10.23;5.93;;;;;;;12.60;59.05;98329.05;1741785;82;21225;-71
2021/04/20 12:02:41;;;;;;;7.10;5.28;;;;;;;12.68;59.09;98332.87;1786279;80;21173;-74
2021/04/20 12:05:14;;;;;;;8.28;6.05;;;;;;;12.70;58.22;98318.19;1754867;79;21490;-72
2021/04/20 12:07:41;;;;;;;;;;;;;;;12.72;58.21;98326.81;1744030;82;21070;-75
2021/04/20 12:10:18;;;;;;;7.37;5.22;;;;;;;12.71;57.60;98321.19;1741123;82;20150;-74